createdAt,value
2023-04-27T00:02:16.165Z,3.90
2023-04-27T00:04:48.489Z,5.55
2023-04-27T00:07:21.356Z,14.93
2023-04-27T00:09:53.580Z,18.92
2023-04-27T00:12:23.322Z,12.35
2023-04-27T00:14:52.450Z,5.40
2023-04-27T00:17:26.962Z,5.53
2023-04-27T00:19:55.985Z,5.63
2023-04-27T00:22:25.192Z,4.72
2023-04-27T00:24:54.242Z,5.47
2023-04-27T00:27:23.527Z,4.15
2023-04-27T00:29:52.595Z,5.65
2023-04-27T00:32:21.998Z,5.68
2023-04-27T00:34:51.286Z,7.25
2023-04-27T00:37:20.608Z,7.55
2023-04-27T00:39:50.121Z,7.47
2023-04-27T00:42:20.937Z,6.82
2023-04-27T00:44:54.350Z,6.05
2023-04-27T00:47:23.704Z,6.95
2023-04-27T00:49:53.706Z,5.53
2023-04-27T00:52:23.165Z,5.10
2023-04-27T00:54:53.606Z,5.30
2023-04-27T00:57:24.491Z,4.82
2023-04-27T00:59:54.510Z,4.85
2023-04-27T01:02:25.647Z,4.78
2023-04-27T01:04:56.009Z,4.90
2023-04-27T01:07:28.820Z,4.57
2023-04-27T01:09:59.960Z,4.03
2023-04-27T01:12:29.289Z,5.75
2023-04-27T01:14:58.459Z,6.95
2023-04-27T01:17:28.076Z,5.95
2023-04-27T01:19:57.988Z,5.22
2023-04-27T01:22:28.072Z,4.72
2023-04-27T01:24:59.144Z,5.55
2023-04-27T01:27:28.260Z,5.72
2023-04-27T01:29:57.232Z,5.43
2023-04-27T01:32:26.974Z,5.40
2023-04-27T01:34:56.373Z,5.55
2023-04-27T01:37:28.376Z,6.28
2023-04-27T01:39:57.647Z,7.47
2023-04-27T01:42:27.200Z,7.53
2023-04-27T01:44:56.182Z,9.18
2023-04-27T01:47:25.338Z,10.93
2023-04-27T01:49:54.489Z,12.48
2023-04-27T01:52:23.628Z,15.25
2023-04-27T01:54:52.485Z,13.65
2023-04-27T01:57:24.954Z,12.35
2023-04-27T02:00:01.645Z,10.90
2023-04-27T02:02:54.598Z,12.85
2023-04-27T02:05:25.375Z,12.70
2023-04-27T02:07:55.929Z,14.73
2023-04-27T02:10:25.113Z,17.55
2023-04-27T02:12:58.444Z,13.07
2023-04-27T02:15:27.764Z,12.25
2023-04-27T02:17:57.165Z,9.55
2023-04-27T02:20:31.238Z,9.45
2023-04-27T02:23:03.451Z,9.90
2023-04-27T02:25:32.947Z,7.70
2023-04-27T02:28:03.790Z,8.18
2023-04-27T02:30:34.136Z,7.43
2023-04-27T02:33:03.256Z,6.85
2023-04-27T02:35:34.487Z,6.88
2023-04-27T02:38:03.624Z,8.00
2023-04-27T02:40:32.714Z,5.93
2023-04-27T02:43:01.774Z,6.13
2023-04-27T02:45:30.658Z,5.13
2023-04-27T02:48:00.361Z,5.15
2023-04-27T02:50:29.551Z,5.13
2023-04-27T02:52:59.390Z,5.68
2023-04-27T02:59:41.260Z,12.07
2023-04-27T03:02:10.476Z,21.00
2023-04-27T03:04:39.700Z,8.23
2023-04-27T03:07:08.705Z,10.90
2023-04-27T03:09:39.089Z,5.90
2023-04-27T03:12:08.240Z,7.90
2023-04-27T03:14:37.524Z,7.28
2023-04-27T03:17:07.214Z,7.15
2023-04-27T03:19:36.367Z,4.85
2023-04-27T03:22:05.663Z,4.32
2023-04-27T03:24:35.384Z,5.05
2023-04-27T03:27:04.454Z,5.28
2023-04-27T03:29:33.595Z,6.22
2023-04-27T03:32:03.040Z,5.35
2023-04-27T03:34:32.915Z,6.10
2023-04-27T03:37:02.644Z,4.88
2023-04-27T03:39:31.773Z,4.72
2023-04-27T03:42:01.095Z,4.38
2023-04-27T03:44:32.082Z,5.40
2023-04-27T03:47:02.580Z,4.75
2023-04-27T03:49:31.877Z,6.70
2023-04-27T03:52:01.050Z,7.50
2023-04-27T03:54:30.340Z,7.10
2023-04-27T03:56:59.756Z,5.13
2023-04-27T03:59:31.266Z,4.97
2023-04-27T04:02:01.521Z,6.85
2023-04-27T04:04:30.876Z,4.80
2023-04-27T04:06:59.915Z,5.15
2023-04-27T04:09:29.730Z,6.05
2023-04-27T04:11:58.761Z,7.03
2023-04-27T04:14:29.493Z,5.63
2023-04-27T04:16:59.574Z,5.57
2023-04-27T04:19:28.718Z,5.45
2023-04-27T04:21:59.053Z,5.72
2023-04-27T04:24:29.389Z,6.93
2023-04-27T04:26:59.688Z,5.18
2023-04-27T04:29:28.679Z,5.55
2023-04-27T04:31:58.560Z,6.22
2023-04-27T04:34:28.194Z,5.63
2023-04-27T04:37:01.302Z,6.80
2023-04-27T04:39:34.262Z,5.32
2023-04-27T04:42:05.214Z,7.78
2023-04-27T04:44:35.006Z,5.50
2023-04-27T04:47:04.614Z,4.10
2023-04-27T04:49:33.798Z,5.35
2023-04-27T04:52:03.056Z,6.05
2023-04-27T04:54:32.349Z,6.80
2023-04-27T04:57:04.519Z,7.15
2023-04-27T04:59:36.896Z,7.82
2023-04-27T05:02:06.334Z,4.28
2023-04-27T05:04:35.490Z,6.57
2023-04-27T05:07:05.936Z,7.15
2023-04-27T05:09:35.326Z,12.13
2023-04-27T05:12:04.762Z,9.73
2023-04-27T05:14:34.231Z,7.43
2023-04-27T05:17:03.422Z,6.63
2023-04-27T05:19:32.858Z,18.67
2023-04-27T05:22:01.936Z,6.15
2023-04-27T05:24:30.985Z,8.82
2023-04-27T05:27:01.504Z,6.20
2023-04-27T05:29:32.063Z,5.68
2023-04-27T05:32:01.193Z,6.03
2023-04-27T05:34:30.278Z,6.43
2023-04-27T05:36:59.464Z,5.20
2023-04-27T05:39:28.856Z,4.53
2023-04-27T05:41:58.464Z,6.05
2023-04-27T05:44:30.474Z,4.32
2023-04-27T05:46:59.468Z,5.53
2023-04-27T05:49:28.662Z,4.35
2023-04-27T05:51:57.662Z,4.70
2023-04-27T05:54:27.065Z,17.45
2023-04-27T05:56:56.038Z,6.47
2023-04-27T05:59:25.034Z,6.53
2023-04-27T06:01:54.401Z,4.65
2023-04-27T06:04:23.410Z,9.15
2023-04-27T06:06:53.022Z,4.80
2023-04-27T06:09:22.069Z,4.32
2023-04-27T06:11:51.372Z,4.70
2023-04-27T06:14:20.272Z,4.15
2023-04-27T06:16:49.390Z,6.28
2023-04-27T06:19:18.779Z,7.13
2023-04-27T06:21:47.809Z,3.78
2023-04-27T06:24:16.856Z,5.30
2023-04-27T06:26:45.909Z,3.38
2023-04-27T06:29:14.989Z,3.75
2023-04-27T06:31:44.414Z,4.05
2023-04-27T06:34:14.265Z,5.47
2023-04-27T06:36:44.184Z,3.92
2023-04-27T06:39:13.391Z,3.88
2023-04-27T06:41:42.543Z,2.85
2023-04-27T06:44:20.686Z,4.30
2023-04-27T06:46:49.795Z,4.10
2023-04-27T06:49:18.804Z,3.97
2023-04-27T06:51:47.939Z,2.97
2023-04-27T06:54:17.687Z,4.95
2023-04-27T06:56:47.334Z,3.53
2023-04-27T06:59:16.695Z,4.32
2023-04-27T07:01:45.480Z,4.88
2023-04-27T07:04:15.113Z,3.63
2023-04-27T07:11:33.161Z,4.50
2023-04-27T07:14:02.308Z,3.50
2023-04-27T07:16:32.077Z,3.90
2023-04-27T07:19:02.909Z,3.55
2023-04-27T07:21:32.787Z,3.97
2023-04-27T07:24:02.278Z,4.68
2023-04-27T07:26:32.970Z,5.00
2023-04-27T07:29:06.126Z,5.90
2023-04-27T07:31:43.811Z,5.45
2023-04-27T07:34:13.468Z,5.07
2023-04-27T07:36:42.915Z,4.85
2023-04-27T07:39:19.704Z,4.40
2023-04-27T07:45:48.140Z,6.53
2023-04-27T07:48:19.175Z,7.57
2023-04-27T07:56:11.409Z,6.28
2023-04-27T07:58:41.087Z,4.57
2023-04-27T08:01:11.280Z,4.60
2023-04-27T08:03:41.352Z,6.03
2023-04-27T08:06:11.336Z,6.35
2023-04-27T08:08:40.939Z,5.75
2023-04-27T08:11:13.996Z,4.53
2023-04-27T08:13:43.609Z,5.45
2023-04-27T08:16:12.809Z,4.30
2023-04-27T08:18:42.648Z,4.60
2023-04-27T08:21:12.434Z,6.05
2023-04-27T08:23:41.911Z,4.20
2023-04-27T08:26:16.911Z,3.78
2023-04-27T08:28:46.142Z,4.70
2023-04-27T08:31:15.528Z,4.22
2023-04-27T08:33:44.789Z,4.20
2023-04-27T08:36:13.917Z,5.13
2023-04-27T08:38:43.096Z,6.45
2023-04-27T08:41:21.458Z,4.22
2023-04-27T08:43:53.240Z,4.72
2023-04-27T08:46:24.612Z,3.87
2023-04-27T08:48:58.225Z,4.65
2023-04-27T08:51:28.608Z,4.80
2023-04-27T08:53:59.479Z,4.43
2023-04-27T08:56:30.902Z,4.20
2023-04-27T08:59:02.973Z,3.72
2023-04-27T09:01:33.260Z,4.18
2023-04-27T09:04:04.156Z,3.40
2023-04-27T09:06:35.120Z,5.30
2023-04-27T09:09:05.837Z,4.28
2023-04-27T09:11:38.152Z,5.22
2023-04-27T09:14:26.249Z,4.13
2023-04-27T09:17:00.983Z,3.42
2023-04-27T09:19:31.741Z,3.85
2023-04-27T09:22:12.698Z,3.78
2023-04-27T09:24:53.270Z,3.58
2023-04-27T09:27:23.370Z,4.18
2023-04-27T09:29:53.267Z,4.63
2023-04-27T09:32:23.654Z,5.18
2023-04-27T09:34:53.030Z,4.68
2023-04-27T09:37:25.101Z,5.75
2023-04-27T09:39:54.294Z,3.80
2023-04-27T09:42:23.329Z,3.78
2023-04-27T09:44:55.764Z,3.95
2023-04-27T09:47:25.862Z,3.38
2023-04-27T09:49:54.459Z,4.00
2023-04-27T09:52:23.621Z,3.65
2023-04-27T09:54:53.797Z,4.00
2023-04-27T09:57:38.403Z,3.88
2023-04-27T10:00:25.089Z,3.08
2023-04-27T10:03:06.597Z,4.10
2023-04-27T10:05:52.306Z,3.80
2023-04-27T10:08:23.786Z,4.05
2023-04-27T10:10:55.169Z,2.65
2023-04-27T10:13:27.256Z,3.85
2023-04-27T10:15:56.355Z,3.83
2023-04-27T10:18:31.701Z,3.47
2023-04-27T10:21:13.341Z,3.88
2023-04-27T10:23:49.663Z,3.85
2023-04-27T10:26:26.102Z,4.13
2023-04-27T10:29:11.084Z,3.88
2023-04-27T10:31:46.225Z,3.65
2023-04-27T10:34:21.314Z,3.55
2023-04-27T10:36:50.653Z,3.78
2023-04-27T10:39:36.194Z,4.00
2023-04-27T10:42:13.184Z,4.70
2023-04-27T10:44:42.274Z,3.80
2023-04-27T10:47:21.313Z,3.60
2023-04-27T10:49:53.769Z,4.50
2023-04-27T10:52:27.869Z,4.00
2023-04-27T10:54:56.595Z,5.15
2023-04-27T10:57:25.256Z,3.90
2023-04-27T10:59:56.603Z,5.50
2023-04-27T11:02:30.499Z,3.75
2023-04-27T11:05:02.566Z,4.50
2023-04-27T11:10:00.315Z,3.95
2023-04-27T11:12:29.280Z,4.40
2023-04-27T11:15:02.895Z,3.88
2023-04-27T11:17:34.199Z,3.97
2023-04-27T11:20:03.092Z,3.83
2023-04-27T11:22:31.633Z,5.75
2023-04-27T11:25:01.340Z,4.55
2023-04-27T11:27:41.814Z,5.28
2023-04-27T11:30:24.842Z,4.85
2023-04-27T11:32:54.671Z,4.82
2023-04-27T11:35:37.551Z,4.65
2023-04-27T11:59:31.145Z,6.20
2023-04-27T12:11:30.337Z,5.68
2023-04-27T12:22:19.475Z,5.20
2023-04-27T12:24:55.739Z,6.72
2023-04-27T12:31:46.394Z,7.22
2023-04-27T12:34:50.652Z,8.63
2023-04-27T12:37:47.410Z,9.00
2023-04-27T13:04:22.700Z,7.53
2023-04-27T13:06:52.013Z,7.18
2023-04-27T13:24:40.650Z,9.55
2023-04-27T13:27:32.135Z,10.57
2023-04-27T13:30:21.316Z,8.40
2023-04-27T13:35:41.875Z,8.60
2023-04-27T13:38:19.611Z,8.20
2023-04-27T13:45:09.762Z,8.25
2023-04-27T13:55:15.979Z,13.98
2023-04-27T13:58:02.170Z,14.45
2023-04-27T14:01:14.366Z,13.05
2023-04-27T14:03:55.930Z,12.68
2023-04-27T14:10:20.548Z,18.38
2023-04-27T14:12:50.750Z,25.45
2023-04-27T14:16:29.287Z,26.52
2023-04-27T14:18:58.092Z,25.80
2023-04-27T14:25:57.709Z,20.20
2023-04-27T14:28:28.960Z,20.85
2023-04-27T14:31:13.616Z,23.15
2023-04-27T14:44:42.129Z,18.33
2023-04-27T14:47:25.449Z,17.60
2023-04-27T14:50:09.736Z,16.48
2023-04-27T14:56:41.156Z,14.45
2023-04-27T14:59:13.646Z,13.30
2023-04-27T15:01:47.183Z,15.05
2023-04-27T15:04:43.447Z,14.40
2023-04-27T15:10:42.429Z,15.82
2023-04-27T15:13:15.791Z,15.50
2023-04-27T15:16:23.158Z,16.58
2023-04-27T15:18:57.178Z,16.67
2023-04-27T15:28:29.154Z,20.48
2023-04-27T15:38:21.090Z,35.95
2023-04-27T15:40:50.421Z,28.25
2023-04-27T15:43:43.336Z,27.80
2023-04-27T15:46:13.224Z,21.42
2023-04-27T15:49:02.538Z,26.20
2023-04-27T15:55:16.715Z,15.48
2023-04-27T15:58:10.558Z,15.57
2023-04-27T16:04:51.706Z,13.88
2023-04-27T16:11:33.797Z,15.57
2023-04-27T16:14:53.033Z,15.33
2023-04-27T16:21:01.622Z,14.40
2023-04-27T16:23:30.736Z,14.13
2023-04-27T16:29:14.088Z,17.73
2023-04-27T16:31:52.399Z,16.20
2023-04-27T16:41:27.919Z,22.25
2023-04-27T16:43:57.338Z,26.10
2023-04-27T16:46:28.880Z,21.98
2023-04-27T16:48:58.878Z,22.25
2023-04-27T16:55:22.771Z,22.88
2023-04-27T17:01:30.954Z,20.17
2023-04-27T17:04:35.149Z,21.40
2023-04-27T17:21:04.250Z,39.80
2023-04-27T17:24:20.971Z,33.40
2023-04-27T17:27:16.754Z,33.13
2023-04-27T17:33:51.719Z,24.27
2023-04-27T17:36:28.944Z,23.90
2023-04-27T17:39:16.115Z,21.35
2023-04-27T17:41:48.064Z,19.20
2023-04-27T17:44:18.419Z,19.85
2023-04-27T17:47:12.651Z,25.33
2023-04-27T17:53:13.399Z,30.27
2023-04-27T17:59:44.219Z,36.65
2023-04-27T18:06:28.821Z,37.92
2023-04-27T18:08:58.659Z,37.42
2023-04-27T18:14:52.174Z,32.45
2023-04-27T18:20:29.105Z,135.40
2023-04-27T18:23:16.771Z,49.53
2023-04-27T18:26:02.927Z,94.53
2023-04-27T18:29:02.983Z,40.20
2023-04-27T18:52:40.134Z,45.72
2023-04-27T18:55:19.264Z,92.03
2023-04-27T19:01:58.315Z,106.03
2023-04-27T19:08:26.620Z,90.80
2023-04-27T19:14:54.301Z,249.25
2023-04-27T19:17:34.006Z,135.27
2023-04-27T19:23:57.171Z,33.42
2023-04-27T19:26:48.666Z,46.88
2023-04-27T19:39:41.645Z,27.65
2023-04-27T19:42:22.181Z,22.38
2023-04-27T19:52:03.117Z,19.35
2023-04-27T20:13:25.911Z,32.80
2023-04-27T20:16:02.914Z,27.17
2023-04-27T20:25:28.089Z,22.63
2023-04-27T20:32:17.893Z,23.95
2023-04-27T20:35:29.043Z,28.90
2023-04-27T20:38:29.455Z,29.65
2023-04-27T20:41:02.127Z,27.33
2023-04-27T20:43:32.668Z,27.00
2023-04-27T21:20:33.596Z,19.35
2023-04-27T21:37:23.260Z,18.40
2023-04-27T21:39:54.999Z,29.88
2023-04-27T21:59:27.464Z,21.80
2023-04-27T22:02:27.177Z,17.70
2023-04-27T22:05:12.952Z,19.80
2023-04-27T22:14:44.436Z,16.58
2023-04-27T22:18:31.443Z,18.08
2023-04-27T22:21:01.011Z,16.95
2023-04-27T22:27:05.293Z,15.10
2023-04-27T22:29:52.474Z,15.73
2023-04-27T22:55:54.235Z,16.40
2023-04-27T23:04:59.810Z,19.02
2023-04-27T23:17:52.376Z,31.17
2023-04-27T23:52:48.939Z,20.48
2023-04-27T23:56:02.979Z,21.23
